Terminal Aerodrome Forecast
Issued by NWS Pocatello, ID

Home | Current Version | Previous Version | Text Only | Print | Product List | Glossary On
Versions: 1 2 3 4 5 6 7 8 9 10 11 12 13 14 15 16 17 18 19 20 21 22 23 24 25 26
000
FTUS45 KPIH 110533
TAFIDA
TAF
KIDA 110533Z 1106/1206 36005KT P6SM FEW110 SCT200
     FM110900 04005KT 4SM BR SCT004 SCT200
     FM111300 03005KT 4SM BR OVC001
     FM111700 01005KT P6SM FEW002 SCT200=

USA.gov is the U.S. government's official web portal to all federal, state and local government web resources and services.